createdAt,value
2023-01-20T00:01:46.497Z,100442.75
2023-01-20T00:04:15.615Z,100451.25
2023-01-20T00:06:42.536Z,100449.31
2023-01-20T00:09:17.874Z,100450.69
2023-01-20T00:11:49.953Z,100455.50
2023-01-20T00:14:19.212Z,100458.81
2023-01-20T00:16:46.127Z,100461.09
2023-01-20T00:19:18.173Z,100466.31
2023-01-20T00:21:45.132Z,100459.41
2023-01-20T00:24:14.551Z,100466.44
2023-01-20T00:26:41.489Z,100474.59
2023-01-20T00:29:09.297Z,100480.31
2023-01-20T00:31:36.518Z,100483.63
2023-01-20T00:34:06.215Z,100493.56
2023-01-20T00:36:34.076Z,100498.31
2023-01-20T00:39:06.737Z,100501.00
2023-01-20T00:41:34.022Z,100508.53
2023-01-20T00:44:03.175Z,100509.75
2023-01-20T00:46:32.539Z,100508.16
2023-01-20T00:49:01.508Z,100513.28
2023-01-20T00:51:28.499Z,100515.31
2023-01-20T00:53:58.411Z,100518.00
2023-01-20T00:56:25.358Z,100510.59
2023-01-20T00:58:55.338Z,100519.09
2023-01-20T01:01:23.623Z,100516.78
2023-01-20T01:03:54.580Z,100524.31
2023-01-20T01:06:23.351Z,100523.97
2023-01-20T01:08:50.284Z,100531.63
2023-01-20T01:11:22.052Z,100525.91
2023-01-20T01:13:51.903Z,100542.09
2023-01-20T01:16:19.035Z,100542.56
2023-01-20T01:18:46.086Z,100545.97
2023-01-20T01:21:16.507Z,100541.00
2023-01-20T01:23:46.258Z,100546.94
2023-01-20T01:26:13.675Z,100546.09
2023-01-20T01:28:45.605Z,100554.34
2023-01-20T01:31:17.081Z,100551.81
2023-01-20T01:33:44.124Z,100551.69
2023-01-20T01:36:28.631Z,100555.81
2023-01-20T01:38:57.685Z,100560.94
2023-01-20T01:41:26.596Z,100570.66
2023-01-20T01:44:12.807Z,100562.16
2023-01-20T01:46:40.847Z,100565.06
2023-01-20T01:49:23.148Z,100574.53
2023-01-20T01:52:06.360Z,100568.00
2023-01-20T01:54:41.602Z,100571.03
2023-01-20T01:57:11.617Z,100577.97
2023-01-20T01:59:38.962Z,100575.28
2023-01-20T02:02:06.057Z,100578.19
2023-01-20T02:04:35.019Z,100581.81
2023-01-20T02:07:11.576Z,100576.94
2023-01-20T02:09:39.267Z,100580.34
2023-01-20T02:12:13.000Z,100579.00
2023-01-20T02:14:52.721Z,100589.09
2023-01-20T02:17:38.571Z,100592.00
2023-01-20T02:20:46.008Z,100586.91
2023-01-20T02:23:42.535Z,100590.06
2023-01-20T02:26:56.013Z,100600.16
2023-01-20T02:29:44.844Z,100604.16
2023-01-20T02:32:29.546Z,100598.09
2023-01-20T02:35:09.206Z,100607.44
2023-01-20T02:38:28.922Z,100601.63
2023-01-20T02:41:10.718Z,100606.28
2023-01-20T02:44:22.379Z,100608.50
2023-01-20T02:47:02.318Z,100614.19
2023-01-20T02:49:46.793Z,100616.13
2023-01-20T02:52:25.373Z,100612.75
2023-01-20T02:54:56.567Z,100616.50
2023-01-20T02:57:35.819Z,100615.78
2023-01-20T03:00:24.855Z,100619.97
2023-01-20T03:03:03.347Z,100623.66
2023-01-20T03:05:40.815Z,100618.44
2023-01-20T03:08:13.987Z,100622.44
2023-01-20T03:10:42.947Z,100619.75
2023-01-20T03:13:31.910Z,100628.69
2023-01-20T03:16:05.379Z,100628.09
2023-01-20T03:18:36.509Z,100628.28
2023-01-20T03:21:05.659Z,100628.84
2023-01-20T03:23:40.903Z,100626.22
2023-01-20T03:26:12.155Z,100638.38
2023-01-20T03:28:41.391Z,100628.47
2023-01-20T03:31:30.950Z,100637.66
2023-01-20T03:34:01.825Z,100635.56
2023-01-20T03:36:30.774Z,100634.97
2023-01-20T03:38:59.462Z,100638.44
2023-01-20T03:42:00.115Z,100650.91
2023-01-20T03:44:57.219Z,100652.81
2023-01-20T03:47:46.602Z,100657.03
2023-01-20T03:50:19.298Z,100660.13
2023-01-20T03:52:53.181Z,100654.50
2023-01-20T03:55:28.952Z,100664.31
2023-01-20T03:58:04.999Z,100672.13
2023-01-20T04:00:39.935Z,100675.47
2023-01-20T04:03:19.447Z,100676.22
2023-01-20T04:05:48.291Z,100685.94
2023-01-20T04:08:20.618Z,100694.56
2023-01-20T04:10:50.144Z,100686.31
2023-01-20T04:13:17.171Z,100698.50
2023-01-20T04:15:45.903Z,100704.50
2023-01-20T04:18:21.291Z,100712.41
2023-01-20T04:20:53.300Z,100702.31
2023-01-20T04:23:24.422Z,100708.31
2023-01-20T04:25:51.314Z,100715.59
2023-01-20T04:28:18.203Z,100716.59
2023-01-20T04:30:45.176Z,100727.53
2023-01-20T04:33:12.090Z,100717.13
2023-01-20T04:35:41.965Z,100714.97
2023-01-20T04:38:14.832Z,100729.78
2023-01-20T04:40:41.895Z,100729.88
2023-01-20T04:43:12.102Z,100724.06
2023-01-20T04:45:43.827Z,100730.53
2023-01-20T04:48:10.884Z,100732.00
2023-01-20T04:50:41.750Z,100741.44
2023-01-20T04:53:13.760Z,100745.22
2023-01-20T04:55:40.679Z,100754.19
2023-01-20T04:58:10.674Z,100752.81
2023-01-20T05:00:37.780Z,100743.03
2023-01-20T05:03:07.942Z,100756.97
2023-01-20T05:05:37.218Z,100751.72
2023-01-20T05:08:06.312Z,100752.63
2023-01-20T05:10:34.572Z,100757.66
2023-01-20T05:13:01.716Z,100754.25
2023-01-20T05:15:28.691Z,100759.38
2023-01-20T05:17:55.620Z,100768.22
2023-01-20T05:20:22.521Z,100774.47
2023-01-20T05:22:54.011Z,100768.88
2023-01-20T05:25:20.881Z,100779.53
2023-01-20T05:27:50.874Z,100778.75
2023-01-20T05:30:18.000Z,100783.00
2023-01-20T05:32:56.974Z,100785.94
2023-01-20T05:35:23.910Z,100792.44
2023-01-20T05:37:54.747Z,100793.97
2023-01-20T05:40:22.439Z,100814.63
2023-01-20T05:42:51.887Z,100817.16
2023-01-20T05:45:18.726Z,100809.84
2023-01-20T05:47:45.657Z,100813.22
2023-01-20T05:50:15.056Z,100815.16
2023-01-20T05:52:49.317Z,100809.47
2023-01-20T05:55:16.968Z,100812.94
2023-01-20T05:57:44.221Z,100817.78
2023-01-20T06:00:15.042Z,100833.31
2023-01-20T06:02:42.319Z,100826.56
2023-01-20T06:05:09.577Z,100834.28
2023-01-20T06:07:39.038Z,100837.97
2023-01-20T06:10:08.645Z,100831.78
2023-01-20T06:12:35.665Z,100844.72
2023-01-20T06:15:07.640Z,100843.41
2023-01-20T06:17:37.073Z,100860.94
2023-01-20T06:20:06.592Z,100848.88
2023-01-20T06:22:37.961Z,100856.03
2023-01-20T06:25:05.442Z,100853.56
2023-01-20T06:27:32.507Z,100864.88
2023-01-20T06:30:04.030Z,100868.78
2023-01-20T06:32:31.134Z,100871.16
2023-01-20T06:34:57.968Z,100870.81
2023-01-20T06:37:24.898Z,100883.56
2023-01-20T06:39:51.741Z,100887.72
2023-01-20T06:42:18.742Z,100893.44
2023-01-20T06:44:45.644Z,100899.13
2023-01-20T06:47:14.889Z,100892.34
2023-01-20T06:49:45.464Z,100898.38
2023-01-20T06:52:12.375Z,100905.09
2023-01-20T06:54:41.610Z,100914.53
2023-01-20T06:57:11.012Z,100912.91
2023-01-20T06:59:40.035Z,100914.75
2023-01-20T07:02:12.266Z,100917.19
2023-01-20T07:04:39.355Z,100928.31
2023-01-20T07:07:12.936Z,100932.81
2023-01-20T07:09:40.036Z,100939.25
2023-01-20T07:12:10.010Z,100944.81
2023-01-20T07:14:41.575Z,100942.22
2023-01-20T07:17:14.611Z,100956.25
2023-01-20T07:19:46.077Z,100957.41
2023-01-20T07:22:15.277Z,100959.78
2023-01-20T07:24:42.161Z,100963.50
2023-01-20T07:27:15.060Z,100966.13
2023-01-20T07:29:44.268Z,100968.47
2023-01-20T07:32:13.635Z,100971.47
2023-01-20T07:34:40.469Z,100974.03
2023-01-20T07:37:07.439Z,100983.66
2023-01-20T07:39:36.234Z,100988.63
2023-01-20T07:42:03.342Z,100990.78
2023-01-20T07:44:33.087Z,100995.69
2023-01-20T07:47:00.152Z,100999.09
2023-01-20T07:49:31.680Z,101010.22
2023-01-20T07:51:58.768Z,101010.31
2023-01-20T07:54:25.867Z,101015.63
2023-01-20T07:56:52.823Z,101018.38
2023-01-20T07:59:22.240Z,101032.72
2023-01-20T08:01:49.301Z,101040.41
2023-01-20T08:04:18.009Z,101039.13
2023-01-20T08:06:49.344Z,101043.28
2023-01-20T08:09:16.348Z,101046.78
2023-01-20T08:11:43.331Z,101049.13
2023-01-20T08:14:14.128Z,101062.97
2023-01-20T08:16:41.210Z,101055.13
2023-01-20T08:19:08.250Z,101066.44
2023-01-20T08:21:36.391Z,101070.81
2023-01-20T08:24:08.945Z,101076.22
2023-01-20T08:26:39.424Z,101080.38
2023-01-20T08:29:10.639Z,101082.72
2023-01-20T08:31:38.063Z,101083.94
2023-01-20T08:34:06.525Z,101088.97
2023-01-20T08:36:36.805Z,101085.44
2023-01-20T08:39:08.687Z,101091.13
2023-01-20T08:41:38.829Z,101101.38
2023-01-20T08:44:07.567Z,101098.06
2023-01-20T08:46:41.939Z,101100.97
2023-01-20T08:49:16.212Z,101112.69
2023-01-20T08:51:44.919Z,101106.19
2023-01-20T08:54:12.164Z,101122.66
2023-01-20T08:56:39.680Z,101118.38
2023-01-20T08:59:07.122Z,101116.56
2023-01-20T09:01:38.348Z,101120.97
2023-01-20T09:04:06.979Z,101133.16
2023-01-20T09:06:43.803Z,101129.63
2023-01-20T09:09:15.479Z,101130.88
2023-01-20T09:11:50.491Z,101128.50
2023-01-20T09:14:22.603Z,101130.53
2023-01-20T09:16:54.645Z,101125.75
2023-01-20T09:19:24.191Z,101121.28
2023-01-20T09:21:51.246Z,101136.16
2023-01-20T09:24:18.326Z,101133.09
2023-01-20T09:26:45.461Z,101131.53
2023-01-20T09:29:18.771Z,101133.16
2023-01-20T09:31:54.061Z,101136.47
2023-01-20T09:34:24.481Z,101143.34
2023-01-20T09:36:57.995Z,101138.38
2023-01-20T09:39:44.213Z,101143.59
2023-01-20T09:43:08.256Z,101150.31
2023-01-20T09:45:48.858Z,101151.63
2023-01-20T09:49:05.384Z,101157.41
2023-01-20T09:52:20.241Z,101156.16
2023-01-20T09:55:26.478Z,101158.63
2023-01-20T09:58:25.592Z,101165.72
2023-01-20T10:01:35.414Z,101178.81
2023-01-20T10:04:24.400Z,101179.63
2023-01-20T10:06:57.400Z,101177.69
2023-01-20T10:09:47.852Z,101178.75
2023-01-20T10:12:37.208Z,101181.38
2023-01-20T10:15:21.497Z,101180.66
2023-01-20T10:18:19.391Z,101180.09
2023-01-20T10:21:06.818Z,101189.19
2023-01-20T10:24:00.616Z,101187.13
2023-01-20T10:26:56.087Z,101176.28
2023-01-20T10:29:34.489Z,101167.03
2023-01-20T10:32:06.831Z,101172.19
2023-01-20T10:34:45.607Z,101173.97
2023-01-20T10:37:15.245Z,101171.25
2023-01-20T10:39:55.008Z,101176.66
2023-01-20T10:42:22.947Z,101173.75
2023-01-20T10:44:51.373Z,101169.66
2023-01-20T10:47:26.621Z,101181.56
2023-01-20T10:50:07.847Z,101173.94
2023-01-20T10:52:51.219Z,101172.97
2023-01-20T10:55:58.429Z,101185.13
2023-01-20T10:58:33.870Z,101185.59
2023-01-20T11:01:06.907Z,101187.47
2023-01-20T11:03:44.413Z,101187.97
2023-01-20T11:06:23.442Z,101190.16
2023-01-20T11:08:50.907Z,101194.22
2023-01-20T11:11:25.641Z,101191.56
2023-01-20T11:13:57.417Z,101188.59
2023-01-20T11:16:31.719Z,101194.59
2023-01-20T11:18:58.726Z,101197.66
2023-01-20T11:21:29.331Z,101210.56
2023-01-20T11:24:00.968Z,101196.66
2023-01-20T11:26:33.590Z,101208.13
2023-01-20T11:29:29.440Z,101212.66
2023-01-20T11:31:59.856Z,101218.47
2023-01-20T11:34:35.662Z,101213.38
2023-01-20T11:37:05.777Z,101231.91
2023-01-20T11:39:37.108Z,101232.56
2023-01-20T11:42:26.074Z,101239.84
2023-01-20T11:45:20.218Z,101240.97
2023-01-20T11:48:16.072Z,101240.97
2023-01-20T11:50:58.565Z,101236.53
2023-01-20T11:53:33.102Z,101243.09
2023-01-20T11:56:02.328Z,101242.91
2023-01-20T11:58:50.864Z,101244.03
2023-01-20T12:01:30.797Z,101246.38
2023-01-20T12:04:20.205Z,101246.63
2023-01-20T12:06:56.875Z,101255.66
2023-01-20T12:09:35.438Z,101255.03
2023-01-20T12:12:25.699Z,101254.06
2023-01-20T12:15:02.918Z,101257.13
2023-01-20T12:17:41.479Z,101253.56
2023-01-20T12:20:35.423Z,101258.91
2023-01-20T12:23:27.978Z,101252.06
2023-01-20T12:26:06.291Z,101258.50
2023-01-20T12:28:56.289Z,101252.44
2023-01-20T12:31:24.974Z,101260.88
2023-01-20T12:34:05.006Z,101262.09
2023-01-20T12:37:11.659Z,101263.94
2023-01-20T12:39:59.662Z,101269.28
2023-01-20T12:42:54.335Z,101269.72
2023-01-20T12:46:02.377Z,101279.75
2023-01-20T12:49:02.740Z,101278.72
2023-01-20T12:51:59.135Z,101281.66
2023-01-20T12:54:55.030Z,101291.50
2023-01-20T12:57:33.295Z,101291.63
2023-01-20T13:00:45.536Z,101301.06
2023-01-20T13:04:02.473Z,101299.63
2023-01-20T13:06:36.539Z,101305.25
2023-01-20T13:09:37.115Z,101310.34
2023-01-20T13:12:31.363Z,101312.31
2023-01-20T13:15:19.780Z,101310.22
2023-01-20T13:18:21.898Z,101311.69
2023-01-20T13:20:49.819Z,101327.91
2023-01-20T13:23:24.462Z,101325.22
2023-01-20T13:25:52.648Z,101326.50
2023-01-20T13:28:30.607Z,101333.31
2023-01-20T13:31:00.404Z,101326.81
2023-01-20T13:33:38.693Z,101330.44
2023-01-20T13:36:26.228Z,101332.09
2023-01-20T13:39:40.411Z,101351.28
2023-01-20T13:42:29.280Z,101338.41
2023-01-20T13:45:11.618Z,101334.56
2023-01-20T13:48:10.967Z,101342.88
2023-01-20T13:50:47.640Z,101352.03
2023-01-20T13:53:28.326Z,101361.50
2023-01-20T13:55:58.819Z,101371.19
2023-01-20T13:58:33.593Z,101366.28
2023-01-20T14:01:14.904Z,101382.28
2023-01-20T14:03:44.533Z,101380.63
2023-01-20T14:06:14.414Z,101378.50
2023-01-20T14:08:51.245Z,101379.88
2023-01-20T14:11:21.791Z,101391.81
2023-01-20T14:13:58.475Z,101395.81
2023-01-20T14:16:34.643Z,101402.03
2023-01-20T14:19:34.250Z,101397.63
2023-01-20T14:22:37.085Z,101404.16
2023-01-20T14:25:04.516Z,101405.59
2023-01-20T14:27:41.787Z,101412.66
2023-01-20T14:30:27.422Z,101415.44
2023-01-20T14:32:54.802Z,101410.59
2023-01-20T14:35:31.274Z,101416.06
2023-01-20T14:38:03.995Z,101423.16
2023-01-20T14:40:35.375Z,101428.25
2023-01-20T14:43:22.476Z,101431.66
2023-01-20T14:45:54.675Z,101436.28
2023-01-20T14:48:33.963Z,101438.97
2023-01-20T14:51:06.291Z,101442.19
2023-01-20T14:53:35.459Z,101445.56
2023-01-20T14:56:09.983Z,101459.19
2023-01-20T14:58:46.626Z,101458.56
2023-01-20T15:01:25.719Z,101462.47
2023-01-20T15:04:01.892Z,101463.69
2023-01-20T15:06:28.926Z,101471.34
2023-01-20T15:09:06.492Z,101474.69
2023-01-20T15:11:35.573Z,101483.00
2023-01-20T15:14:02.560Z,101484.97
2023-01-20T15:16:47.578Z,101489.31
2023-01-20T15:19:18.385Z,101478.03
2023-01-20T15:21:56.578Z,101483.31
2023-01-20T15:24:32.792Z,101485.66
2023-01-20T15:27:04.243Z,101501.59
2023-01-20T15:29:36.741Z,101507.22
2023-01-20T15:32:12.720Z,101513.09
2023-01-20T15:34:39.652Z,101514.09
2023-01-20T15:37:18.717Z,101519.69
2023-01-20T15:39:48.187Z,101521.16
2023-01-20T15:42:18.935Z,101525.81
2023-01-20T15:44:46.388Z,101536.16
2023-01-20T15:47:31.110Z,101537.50
2023-01-20T15:49:58.779Z,101551.44
2023-01-20T15:52:28.169Z,101562.25
2023-01-20T15:54:55.331Z,101557.13
2023-01-20T15:57:22.246Z,101562.78
2023-01-20T15:59:50.225Z,101574.00
2023-01-20T16:02:23.173Z,101579.88
2023-01-20T16:04:50.483Z,101581.94
2023-01-20T16:07:21.670Z,101584.00
2023-01-20T16:09:49.191Z,101590.81
2023-01-20T16:12:18.341Z,101595.09
2023-01-20T16:14:47.866Z,101599.34
2023-01-20T16:17:24.824Z,101606.13
2023-01-20T16:19:51.756Z,101613.97
2023-01-20T16:22:18.885Z,101617.03
2023-01-20T16:24:51.388Z,101621.44
2023-01-20T16:27:22.443Z,101624.56
2023-01-20T16:29:49.919Z,101627.78
2023-01-20T16:32:22.232Z,101632.63
2023-01-20T16:34:52.157Z,101643.38
2023-01-20T16:37:21.572Z,101655.50
2023-01-20T16:39:52.983Z,101649.81
2023-01-20T16:42:29.770Z,101659.47
2023-01-20T16:44:58.848Z,101660.22
2023-01-20T16:47:25.764Z,101663.75
2023-01-20T16:49:55.804Z,101672.88
2023-01-20T16:52:22.802Z,101677.00
2023-01-20T16:54:49.676Z,101682.38
2023-01-20T16:57:16.569Z,101675.00
2023-01-20T16:59:43.564Z,101689.97
2023-01-20T17:02:12.116Z,101688.19
2023-01-20T17:04:41.961Z,101698.81
2023-01-20T17:07:08.999Z,101701.41
2023-01-20T17:09:38.549Z,101706.31
2023-01-20T17:12:05.691Z,101713.53
2023-01-20T17:14:34.888Z,101721.94
2023-01-20T17:17:03.967Z,101723.56
2023-01-20T17:19:33.394Z,101738.09
2023-01-20T17:22:00.519Z,101736.63
2023-01-20T17:24:27.609Z,101744.00
2023-01-20T17:26:54.720Z,101741.69
2023-01-20T17:29:21.955Z,101747.69
2023-01-20T17:31:49.133Z,101751.41
2023-01-20T17:34:18.593Z,101756.75
2023-01-20T17:36:48.225Z,101747.97
2023-01-20T17:39:17.682Z,101764.09
2023-01-20T17:41:44.588Z,101760.38
2023-01-20T17:44:13.308Z,101758.09
2023-01-20T17:46:40.318Z,101770.53
2023-01-20T17:49:09.955Z,101778.22
2023-01-20T17:51:37.103Z,101775.94
2023-01-20T17:54:06.689Z,101772.78
2023-01-20T17:56:35.114Z,101777.50
2023-01-20T17:59:05.793Z,101785.69
2023-01-20T18:01:35.950Z,101791.53
2023-01-20T18:04:06.424Z,101793.75
2023-01-20T18:06:35.343Z,101793.78
2023-01-20T18:09:07.839Z,101790.34
2023-01-20T18:11:37.657Z,101792.06
2023-01-20T18:14:06.807Z,101797.63
2023-01-20T18:16:38.934Z,101802.31
2023-01-20T18:19:09.237Z,101802.59
2023-01-20T18:21:38.396Z,101802.56
2023-01-20T18:24:07.673Z,101808.69
2023-01-20T18:26:37.753Z,101818.59
2023-01-20T18:29:14.889Z,101813.34
2023-01-20T18:31:46.769Z,101823.69
2023-01-20T18:34:20.732Z,101825.91
2023-01-20T18:36:50.514Z,101831.66
2023-01-20T18:39:24.147Z,101823.50
2023-01-20T18:41:52.183Z,101831.94
2023-01-20T18:44:20.175Z,101840.94
2023-01-20T18:46:47.236Z,101835.22
2023-01-20T18:49:17.884Z,101840.69
2023-01-20T18:51:49.776Z,101857.72
2023-01-20T18:54:20.951Z,101857.53
2023-01-20T18:56:48.182Z,101853.75
2023-01-20T18:59:15.367Z,101865.75
2023-01-20T19:01:44.829Z,101868.84
2023-01-20T19:04:13.632Z,101859.78
2023-01-20T19:06:45.508Z,101880.16
2023-01-20T19:09:35.080Z,101874.81
2023-01-20T19:12:04.781Z,101878.00
2023-01-20T19:14:31.790Z,101885.47
2023-01-20T19:16:58.808Z,101883.56
2023-01-20T19:19:28.418Z,101893.81
2023-01-20T19:21:55.251Z,101901.47
2023-01-20T19:24:22.450Z,101903.47
2023-01-20T19:26:49.832Z,101901.09
2023-01-20T19:29:18.021Z,101906.28
2023-01-20T19:31:45.228Z,101910.22
2023-01-20T19:34:12.877Z,101916.44
2023-01-20T19:36:39.996Z,101910.44
2023-01-20T19:39:09.640Z,101919.72
2023-01-20T19:41:38.798Z,101922.28
2023-01-20T19:44:10.916Z,101925.56
2023-01-20T19:46:39.340Z,101921.53
2023-01-20T19:49:11.467Z,101928.66
2023-01-20T19:51:41.869Z,101930.25
2023-01-20T19:54:17.343Z,101934.78
2023-01-20T19:56:44.665Z,101927.34
2023-01-20T19:59:17.029Z,101929.47
2023-01-20T20:01:47.236Z,101939.47
2023-01-20T20:04:14.563Z,101942.28
2023-01-20T20:06:48.508Z,101942.75
2023-01-20T20:09:23.334Z,101947.19
2023-01-20T20:11:50.679Z,101952.63
2023-01-20T20:14:20.647Z,101959.56
2023-01-20T20:16:48.854Z,101960.09
2023-01-20T20:19:19.985Z,101967.69
2023-01-20T20:21:46.956Z,101966.31
2023-01-20T20:24:18.279Z,101972.78
2023-01-20T20:26:49.508Z,101987.56
2023-01-20T20:29:19.027Z,101987.03
2023-01-20T20:31:46.891Z,101988.06
2023-01-20T20:34:17.497Z,101994.78
2023-01-20T20:36:45.061Z,101980.63
2023-01-20T20:39:19.711Z,101984.00
2023-01-20T20:41:47.056Z,101991.69
2023-01-20T20:44:14.921Z,101990.31
2023-01-20T20:46:41.793Z,101991.50
2023-01-20T20:49:15.473Z,101986.34
2023-01-20T20:51:45.111Z,101992.13
2023-01-20T20:54:20.234Z,102002.22
2023-01-20T20:56:47.147Z,102008.25
2023-01-20T20:59:14.345Z,102000.84
2023-01-20T21:01:41.357Z,102006.63
2023-01-20T21:04:08.745Z,102006.47
2023-01-20T21:06:35.697Z,102011.81
2023-01-20T21:09:03.138Z,102019.66
2023-01-20T21:11:30.290Z,102014.31
2023-01-20T21:13:57.554Z,102012.16
2023-01-20T21:16:26.132Z,102018.13
2023-01-20T21:18:56.398Z,102022.09
2023-01-20T21:21:24.034Z,102024.00
2023-01-20T21:23:54.634Z,102038.06
2023-01-20T21:26:22.972Z,102039.09
2023-01-20T21:28:52.135Z,102041.19
2023-01-20T21:31:26.809Z,102045.91
2023-01-20T21:33:58.291Z,102046.78
2023-01-20T21:36:27.187Z,102044.81
2023-01-20T21:38:54.559Z,102044.88
2023-01-20T21:41:21.647Z,102048.16
2023-01-20T21:44:07.750Z,102059.75
2023-01-20T21:46:40.277Z,102060.94
2023-01-20T21:49:27.765Z,102057.16
2023-01-20T21:52:14.372Z,102067.88
2023-01-20T21:54:41.780Z,102059.75
2023-01-20T21:57:11.109Z,102057.59
2023-01-20T21:59:38.198Z,102067.00
2023-01-20T22:02:08.407Z,102070.81
2023-01-20T22:04:35.368Z,102074.88
2023-01-20T22:07:04.788Z,102085.50
2023-01-20T22:09:34.048Z,102087.03
2023-01-20T22:12:00.899Z,102084.97
2023-01-20T22:14:32.338Z,102090.06
2023-01-20T22:17:05.467Z,102097.94
2023-01-20T22:19:35.315Z,102088.78
2023-01-20T22:22:06.964Z,102089.97
2023-01-20T22:24:36.117Z,102102.78
2023-01-20T22:27:03.147Z,102106.75
2023-01-20T22:29:30.445Z,102105.00
2023-01-20T22:31:59.438Z,102116.50
2023-01-20T22:34:29.313Z,102127.66
2023-01-20T22:36:57.666Z,102119.28
2023-01-20T22:39:24.550Z,102124.63
2023-01-20T22:41:51.407Z,102131.81
2023-01-20T22:44:18.491Z,102135.19
2023-01-20T22:46:47.677Z,102135.34
2023-01-20T22:49:17.225Z,102127.72
2023-01-20T22:51:46.880Z,102129.56
2023-01-20T22:54:13.900Z,102138.38
2023-01-20T22:56:40.814Z,102134.56
2023-01-20T22:59:13.598Z,102135.59
2023-01-20T23:01:40.681Z,102138.53
2023-01-20T23:04:10.076Z,102143.91
2023-01-20T23:06:42.007Z,102146.50
2023-01-20T23:09:14.437Z,102146.16
2023-01-20T23:11:41.742Z,102150.66
2023-01-20T23:14:12.670Z,102154.38
2023-01-20T23:16:43.341Z,102162.22
2023-01-20T23:19:10.725Z,102167.69
2023-01-20T23:21:37.660Z,102172.78
2023-01-20T23:24:09.033Z,102174.25
2023-01-20T23:26:38.544Z,102178.81
2023-01-20T23:29:08.049Z,102182.81
2023-01-20T23:31:38.159Z,102186.59
2023-01-20T23:34:05.188Z,102193.50
2023-01-20T23:36:34.954Z,102189.28
2023-01-20T23:39:04.464Z,102191.63
2023-01-20T23:41:31.543Z,102180.22
2023-01-20T23:44:05.467Z,102182.97
2023-01-20T23:46:32.390Z,102185.81
2023-01-20T23:48:59.226Z,102196.28
2023-01-20T23:51:26.282Z,102202.34
2023-01-20T23:53:58.828Z,102196.81
2023-01-20T23:56:26.066Z,102194.47
2023-01-20T23:58:55.427Z,102196.81
